x

San Francisco - 18nm West Of San Francisco, Ca (46026) Wave Buoy

2:50am - Wed 22nd Feb 2017 All times are PST. -8 hours from GMT.

  • Sig Wave height 10.2ft
  • Swell Direction
  • Peak Period 15s
  • Average Period 9s
  • Wind
    16mph, 20mph gusts
  • Sea Temp 53°f
  • Air Temp 52°f
  • Sea Pressure 1024.6mb
  • San Francisco - 18nm West Of San Francisco, Ca
  • San Francisco - 18nm West Of San Francisco, Ca

More Historic Weather Station data

Upgrade to MSW Pro to gain access to the past 30 days of data for over 8000 Wavebouys and Weather Stations around the globe.

Join Pro

Comparision Forecast

View Surf forecast
   
Wed 02/22 2:50am 10ft 15s 9s 16 20 mph 1024.6mb 53f 52f
1:50am 9.5ft 16s 9s 18 20 mph 1024.9mb 54f 52f
12:50am 9.5ft 11s 8s 16 20 mph 1024.7mb 54f 53f
Tue 02/21 11:50pm 9ft 16s 8s 18 20 mph 1024.5mb 54f 53f
10:50pm 10ft 15s 8s 18 20 mph 1024.4mb 54f 53f
9:50pm 9ft 11s 8s 16 20 mph 1024.4mb 54f 53f
8:50pm 9ft 11s 8s 13 18 mph 1023.9mb 54f 53f
7:50pm 9.5ft 10s 8s 13 16 mph 1023.4mb 54f 53f
6:50pm 9ft 11s 8s 11 16 mph 1023mb 54f 53f
5:50pm 8.5ft 10s 8s 11 16 mph 1022.6mb 55f 53f
4:50pm 9ft 11s 8s 11 13 mph 1022.3mb 55f 54f
3:50pm 9ft 12s 8s 11 13 mph 1022.1mb 55f 54f
2:50pm 9.5ft 11s 8s 11 13 mph 1022.2mb 55f 54f
1:50pm 9ft 11s 8s 9 13 mph 1022.5mb 55f 55f
12:50pm 9.5ft 11s 8s 7 9 mph 1022.9mb 55f 54f
10:50am 10ft 12s 8s 7 11 mph 1023.2mb 55f 55f
9:50am 10ft 10s 8s 7 9 mph 1022.9mb 54f 55f
8:50am 10ft 10s 8s 7 9 mph 1022.3mb 54f 55f
7:50am 11ft 11s 8s 7 9 mph 1021.7mb 54f 54f
6:50am 11ft 12s 8s 11 16 mph 1020.9mb 54f 54f
5:50am 12ft 10s 8s 13 18 mph 1020.7mb 54f 55f
4:50am 12.5ft 12s 8s 16 20 mph 1019.9mb 55f 55f
3:50am 12ft 11s 7s 16 18 mph 1019.1mb 55f 54f
2:50am 12.5ft 11s 7s 18 22 mph 1018.7mb 55f 53f
1:50am 12ft 8s 7s 18 22 mph 1018.1mb 55f 56f
12:50am 13ft 9s 7s 20 27 mph 1018mb 55f 56f
Mon 02/20 11:50pm 13ft 14s 7s 25 29 mph 1016.9mb 55f 57f
10:50pm 12ft 14s 7s 27 31 mph 1015.2mb 55f 57f
9:50pm 12ft 14s 7s 27 34 mph 1014mb 55f 57f
8:50pm 12ft 9s 7s 29 36 mph 1013.3mb 55f 57f
7:50pm 10.5ft 13s 7s 27 34 mph 1012.4mb 55f 56f
6:50pm 10ft 13s 8s 25 31 mph 1011.9mb 55f 56f
5:50pm 11ft 14s 8s 20 27 mph 1011mb 55f 55f
4:50pm 10.5ft 12s 7s 22 27 mph 1011.3mb 55f 55f
3:50pm 12ft 15s 8s 22 27 mph 1012mb 55f 54f
2:50pm 12ft 16s 8s 27 31 mph 1012.2mb 54f 54f
1:50pm 11ft 14s 8s 27 31 mph 1012mb 54f 54f
12:50pm 12ft 15s 8s 22 27 mph 1013.2mb 55f 55f
11:50am 12.5ft 13s 8s 22 27 mph 1014.6mb 55f 55f
10:50am 12ft 15s 8s 22 27 mph 1014.7mb 55f 56f
9:50am 12ft 16s 9s 20 25 mph 1014.3mb 55f 56f
8:50am 12.5ft 16s 9s 16 18 mph 1013.6mb 55f 56f
7:50am 12ft 12s 8s 13 18 mph 1012.3mb 55f 56f
6:50am 11ft 16s 8s 9 11 mph 1012.2mb 55f 56f
5:50am 11ft 16s 8s 13 16 mph 1011mb 55f 56f
4:50am 11ft 16s 8s 16 20 mph 1010.9mb 55f 56f
3:50am 12ft 17s 8s 20 25 mph 1010.4mb 55f 55f
2:50am 12ft 17s 7s 27 34 mph 1010.3mb 55f 55f
1:50am 13ft 17s 7s 29 34 mph 1010.2mb 55f 54f
12:50am 12.5ft 8s 7s 34 43 mph 1009mb 55f 54f
Sun 02/19 11:50pm 11.5ft 8s 6s 34 43 mph 1009.7mb 55f 54f
10:50pm 11.5ft 8s 7s 36 45 mph 1009.2mb 55f 54f
9:50pm 12ft 8s 7s 31 40 mph 1010.7mb 55f 55f
8:50pm 12.5ft 8s 7s 31 38 mph 1010.6mb 55f 54f
7:50pm 12ft 8s 7s 31 40 mph 1010.3mb 55f 54f
6:50pm 12.5ft 8s 7s 29 38 mph 1009.6mb 55f 53f
5:50pm 11ft 7s 7s 31 38 mph 1008.8mb 55f 53f
4:50pm 11.5ft 7s 7s 31 40 mph 1008.6mb 55f 53f
3:50pm 11ft 7s 6s 31 36 mph 1008.2mb 55f 52f
2:50pm 10ft 7s 6s 34 43 mph 1007.3mb 55f 52f
1:50pm 9ft 11s 6s 31 38 mph 1008mb 55f 52f
12:50pm 9ft 11s 6s 27 34 mph 1008.7mb 55f 52f
11:50am 8.5ft 13s 6s 29 36 mph 1009.5mb 55f 53f
10:50am 8ft 11s 6s 29 34 mph 1009.6mb 54f 53f
9:50am 8ft 12s 6s 27 31 mph 1009.5mb 54f 53f
8:50am 7.5ft 12s 6s 27 34 mph 1009mb 54f 53f
7:50am 7.5ft 12s 7s 25 29 mph 1009.1mb 54f 53f
6:50am 7ft 11s 7s 22 27 mph 1008.7mb 54f 51f
5:50am 7ft 13s 8s 18 22 mph 1009mb 54f 51f